Time;durP1;ratioP1;P1;durP2;ratioP2;P2;SDS_P1;SDS_P2;PMS_P1;PMS_P2;Temp;Humidity;BMP_temperature;BMP_pressure;BME280_temperature;BME280_humidity;BME280_pressure;Samples;Min_cycle;Max_cycle;Signal;HPM_P1;HPM_P2
2022/03/24 00:07:46;;;;;;;7.12;4.97;;;;;;;2.31;52.07;101540.31;18625603;31;20393;-64
2022/03/24 00:17:50;;;;;;;10.52;5.28;;;;;;;2.30;52.93;101529.13;18625222;31;20094;-64
2022/03/24 00:27:53;;;;;;;5.50;4.00;;;;;;;2.08;53.31;101509.13;18624487;31;20100;-65
2022/03/24 00:37:58;;;;;;;15.50;4.22;;;;;;;2.04;53.95;101497.78;18624304;31;20136;-64
2022/03/24 00:48:01;;;;;;;6.60;3.83;;;;;;;2.13;53.46;101497.34;18623413;31;20091;-64
2022/03/24 00:58:06;;;;;;;12.55;3.90;;;;;;;2.00;53.81;101493.31;18622964;31;20723;-64
2022/03/24 01:08:10;;;;;;;6.22;3.78;;;;;;;1.80;54.88;101495.75;18622485;31;20185;-64
2022/03/24 01:18:16;;;;;;;9.25;4.40;;;;;;;1.98;54.78;101470.84;18621925;31;20128;-64
2022/03/24 01:28:19;;;;;;;7.60;5.03;;;;;;;1.51;55.95;101463.34;18621509;31;20092;-64
2022/03/24 01:38:24;;;;;;;3.90;2.67;;;;;;;1.74;54.97;101451.66;18630492;31;20618;-64
2022/03/24 01:48:28;;;;;;;5.32;2.28;;;;;;;1.68;55.39;101445.31;18630508;31;20088;-64
2022/03/24 01:58:33;;;;;;;6.60;4.32;;;;;;;1.52;56.55;101447.09;18630208;31;20092;-64
2022/03/24 02:08:36;;;;;;;7.65;2.75;;;;;;;1.62;56.22;101440.75;18629858;31;20115;-64
2022/03/24 02:18:41;;;;;;;3.90;1.77;;;;;;;1.44;56.63;101433.84;18629420;31;20724;-64
2022/03/24 02:28:46;;;;;;;3.37;3.08;;;;;;;0.92;57.83;101448.28;18628894;31;20503;-64
2022/03/24 02:38:49;;;;;;;5.33;4.30;;;;;;;0.97;57.90;101430.53;18628904;31;20105;-64
2022/03/24 02:48:54;;;;;;;3.10;1.90;;;;;;;0.87;58.08;101426.59;18628478;31;20111;-64
2022/03/24 02:58:57;;;;;;;4.40;3.60;;;;;;;0.63;59.60;101428.72;18628413;31;20123;-64
2022/03/24 03:09:02;;;;;;;2.90;2.50;;;;;;;0.41;60.21;101430.06;18627989;31;20088;-64
2022/03/24 03:19:08;;;;;;;4.70;4.33;;;;;;;0.64;59.92;101428.78;18627535;31;20083;-64
2022/03/24 03:29:13;;;;;;;1.27;1.23;;;;;;;0.78;59.51;101411.53;18627374;31;20380;-64
2022/03/24 03:39:16;;;;;;;1.80;1.70;;;;;;;0.59;59.96;101407.09;18627074;31;20125;-64
2022/03/24 03:49:21;;;;;;;2.87;2.07;;;;;;;0.33;60.51;101406.53;18626814;31;20122;-65
2022/03/24 03:59:45;;;;;;;2.27;2.17;;;;;;;0.36;60.20;101391.28;18626840;31;20096;-64
2022/03/24 04:09:49;;;;;;;2.57;2.37;;;;;;;0.51;59.12;101398.06;18625639;31;20091;-63
2022/03/24 04:19:52;;;;;;;1.77;1.67;;;;;;;0.28;58.78;101387.41;18625244;31;20152;-64
2022/03/24 04:29:57;;;;;;;7.13;4.20;;;;;;;0.29;60.28;101383.16;18624464;31;20092;-64
2022/03/24 04:40:01;;;;;;;1.87;1.77;;;;;;;0.27;60.30;101390.75;18624339;31;20178;-64
2022/03/24 04:50:07;;;;;;;5.67;2.87;;;;;;;0.09;61.32;101393.19;18624541;31;20119;-64
2022/03/24 05:00:11;;;;;;;2.73;2.30;;;;;;;0.14;60.27;101381.47;18623036;31;20110;-64
2022/03/24 05:10:17;;;;;;;2.80;2.57;;;;;;;0.28;60.07;101374.56;18629274;31;20460;-63
2022/03/24 05:20:20;;;;;;;4.47;3.77;;;;;;;0.58;60.08;101373.59;18631604;31;20100;-63
2022/03/24 05:30:25;;;;;;;5.33;3.67;;;;;;;0.99;58.09;101368.91;18630758;31;20342;-64
2022/03/24 05:40:29;;;;;;;3.35;3.05;;;;;;;1.76;56.69;101370.22;18630676;31;20102;-64
2022/03/24 05:50:33;;;;;;;2.53;2.33;;;;;;;3.70;53.14;101365.19;18630200;31;20092;-64
2022/03/24 06:00:38;;;;;;;7.85;4.07;;;;;;;5.96;47.54;101363.91;18629457;31;20096;-65
2022/03/24 06:10:43;;;;;;;11.95;5.40;;;;;;;9.32;41.11;101355.87;18629599;31;20091;-65
2022/03/24 06:20:46;;;;;;;13.93;5.53;;;;;;;12.20;36.43;101344.66;18629009;31;20364;-66
2022/03/24 06:30:51;;;;;;;11.70;6.03;;;;;;;14.76;32.21;101337.06;18628513;31;20114;-66
2022/03/24 06:40:55;;;;;;;14.43;6.72;;;;;;;16.78;29.29;101322.97;18629679;31;20494;-67
2022/03/24 06:50:59;;;;;;;12.20;5.43;;;;;;;20.12;23.54;101308.47;18625541;31;20099;-67
2022/03/24 07:01:03;;;;;;;8.57;4.47;;;;;;;21.16;21.53;101300.97;18625673;31;20126;-67
2022/03/24 07:11:08;;;;;;;9.40;4.03;;;;;;;20.55;20.81;101301.91;18624639;31;20440;-66
2022/03/24 07:21:12;;;;;;;9.10;3.87;;;;;;;18.99;19.98;101295.31;18578908;31;20361;-66
2022/03/24 07:31:19;;;;;;;13.88;4.45;;;;;;;17.57;21.65;101299.88;18555013;31;20112;-66
2022/03/24 07:41:23;;;;;;;13.02;3.92;;;;;;;18.58;19.63;101290.03;18578977;31;20092;-66
2022/03/24 07:51:32;;;;;;;8.13;3.40;;;;;;;18.93;20.12;101273.44;18625425;31;20139;-66
2022/03/24 08:01:37;;;;;;;7.75;3.87;;;;;;;20.48;18.72;101269.41;18623385;31;20137;-66
2022/03/24 08:11:42;;;;;;;6.57;3.75;;;;;;;20.95;17.72;101257.37;18620625;31;20088;-66
2022/03/24 08:21:45;;;;;;;8.68;3.17;;;;;;;19.55;19.48;101267.53;18621922;31;20100;-67
2022/03/24 08:31:50;;;;;;;9.18;3.95;;;;;;;19.08;18.97;101273.06;18621761;31;20100;-66
2022/03/24 08:41:54;;;;;;;6.35;2.42;;;;;;;18.01;19.81;101278.81;18625851;31;20112;-67
2022/03/24 08:51:58;;;;;;;9.02;3.30;;;;;;;18.77;19.06;101278.16;18630169;31;20114;-68
2022/03/24 09:02:04;;;;;;;9.40;3.30;;;;;;;19.82;17.52;101259.75;18629597;31;20136;-67
2022/03/24 09:12:10;;;;;;;8.57;3.03;;;;;;;20.61;17.07;101250.44;18626859;31;20092;-67
2022/03/24 09:22:14;;;;;;;8.60;3.20;;;;;;;22.42;15.54;101245.22;18628252;31;20471;-67
2022/03/24 09:32:19;;;;;;;7.37;3.35;;;;;;;22.87;15.08;101241.69;18628060;31;20160;-67
2022/03/24 09:42:22;;;;;;;8.15;3.62;;;;;;;25.08;14.78;101239.00;18626683;31;20196;-68
2022/03/24 09:52:27;;;;;;;6.18;3.33;;;;;;;29.81;9.68;101220.81;18602938;31;20135;-68
2022/03/24 10:02:30;;;;;;;5.45;2.47;;;;;;;34.71;6.15;101209.25;18445040;31;20115;-69
2022/03/24 10:12:37;;;;;;;5.37;2.60;;;;;;;34.30;5.59;101197.66;18368555;32;20105;-68
2022/03/24 10:22:41;;;;;;;4.60;2.17;;;;;;;31.87;6.51;101198.34;18368445;32;20093;-68
2022/03/24 10:32:56;;;;;;;4.87;1.80;;;;;;;31.29;6.59;101189.31;18368525;32;20082;-68
2022/03/24 10:42:59;;;;;;;5.35;1.92;;;;;;;29.77;6.75;101187.88;18368791;32;20343;-68
2022/03/24 10:53:05;;;;;;;4.87;2.15;;;;;;;32.04;5.66;101172.66;18367632;32;20105;-68
2022/03/24 11:03:09;;;;;;;4.60;2.15;;;;;;;33.10;6.47;101177.44;18385025;32;20377;-69
2022/03/24 11:13:23;;;;;;;4.05;1.98;;;;;;;29.64;6.28;101171.75;18431907;32;20107;-68
2022/03/24 11:23:35;;;;;;;4.85;2.30;;;;;;;27.25;8.20;101166.59;18431427;32;20112;-67
2022/03/24 11:33:42;;;;;;;5.03;2.33;;;;;;;25.86;9.68;101170.88;18430765;32;20104;-67
2022/03/24 11:43:51;;;;;;;6.28;2.30;;;;;;;25.49;9.71;101161.19;18430974;32;20093;-67
2022/03/24 11:54:07;;;;;;;8.02;2.97;;;;;;;25.35;10.02;101143.22;18431099;32;20155;-67
2022/03/24 12:04:14;;;;;;;6.50;2.72;;;;;;;25.38;10.66;101134.19;18428171;32;20159;-68
2022/03/24 12:14:21;;;;;;;7.12;2.45;;;;;;;25.17;10.58;101122.81;18429639;32;20112;-67
2022/03/24 12:24:24;;;;;;;5.05;2.00;;;;;;;25.41;10.76;101111.75;18395064;32;206104;-68
2022/03/24 12:34:44;;;;;;;6.72;2.67;;;;;;;25.24;10.75;101120.69;18362581;32;20147;-68
2022/03/24 12:44:55;;;;;;;5.75;2.70;;;;;;;25.24;10.48;101100.19;18363532;32;20151;-67
2022/03/24 12:55:00;;;;;;;4.43;2.03;;;;;;;25.16;11.11;101102.41;18363283;32;20461;-67
2022/03/24 13:05:03;;;;;;;5.87;2.28;;;;;;;24.64;11.17;101083.63;18363685;32;20103;-68
2022/03/24 13:15:18;;;;;;;5.55;2.15;;;;;;;25.12;11.31;101098.13;18398297;32;20471;-68
2022/03/24 13:25:24;;;;;;;4.87;2.03;;;;;;;25.07;11.37;101071.69;18428954;32;20093;-68
2022/03/24 13:35:29;;;;;;;3.67;1.95;;;;;;;25.06;11.38;101060.16;18412331;32;20112;-68
2022/03/24 13:45:33;;;;;;;5.30;2.17;;;;;;;24.77;11.11;101043.81;18372390;32;20117;-67
2022/03/24 13:55:37;;;;;;;4.95;1.73;;;;;;;25.50;10.85;101041.81;18370970;32;20094;-67
2022/03/24 14:05:45;;;;;;;4.53;2.00;;;;;;;25.37;10.36;101028.22;18370560;32;20174;-67
2022/03/24 14:15:50;;;;;;;5.12;1.95;;;;;;;25.47;9.92;101018.78;18419995;32;20110;-67
2022/03/24 14:25:54;;;;;;;3.47;1.62;;;;;;;25.40;10.74;101008.50;18434115;32;20137;-68
2022/03/24 14:35:59;;;;;;;4.82;2.10;;;;;;;24.86;10.55;100993.59;18432943;32;20120;-68
2022/03/24 14:46:02;;;;;;;4.15;1.92;;;;;;;24.82;10.63;100981.31;18356314;32;20108;-67
2022/03/24 14:56:08;;;;;;;4.87;2.33;;;;;;;24.55;10.80;100987.13;18365688;32;20828;-67
2022/03/24 15:06:12;;;;;;;5.12;1.58;;;;;;;24.12;10.70;100972.41;18367709;32;20105;-68
2022/03/24 15:16:23;;;;;;;4.10;2.00;;;;;;;23.94;11.04;100968.78;18369008;32;20107;-67
2022/03/24 15:26:26;;;;;;;4.55;1.90;;;;;;;23.83;10.54;100966.69;18367093;32;20097;-67
2022/03/24 15:36:31;;;;;;;3.75;1.75;;;;;;;23.39;10.93;100963.41;18383046;32;20113;-68
2022/03/24 15:46:34;;;;;;;5.40;2.60;;;;;;;23.55;10.58;100963.53;18429791;32;20100;-67
2022/03/24 15:56:39;;;;;;;5.75;1.75;;;;;;;23.20;10.68;100970.50;18429527;32;20129;-67
2022/03/24 16:06:43;;;;;;;8.20;3.28;;;;;;;23.04;10.85;100975.69;18430439;32;20089;-67
2022/03/24 16:16:47;;;;;;;5.82;2.53;;;;;;;22.58;11.25;100982.13;18430785;32;20093;-67
2022/03/24 16:26:51;;;;;;;7.35;2.90;;;;;;;22.00;12.03;100978.31;18429612;32;20166;-67
2022/03/24 16:36:55;;;;;;;8.05;3.70;;;;;;;21.85;12.19;100993.09;18429913;32;20183;-68
2022/03/24 16:47:05;;;;;;;7.28;2.70;;;;;;;21.61;12.79;100995.75;18429476;32;20098;-67
2022/03/24 16:57:09;;;;;;;6.12;2.90;;;;;;;21.02;13.66;101005.91;18426546;32;20088;-67
2022/03/24 17:07:13;;;;;;;19.42;8.13;;;;;;;21.01;13.87;101017.47;18432432;32;20472;-68
2022/03/24 17:17:18;;;;;;;17.27;5.20;;;;;;;20.86;14.03;101027.69;18436720;32;20100;-67
2022/03/24 17:27:22;;;;;;;25.80;8.00;;;;;;;20.29;14.61;101056.97;18436175;32;20146;-67
2022/03/24 17:37:26;;;;;;;14.23;6.75;;;;;;;19.77;15.23;101070.03;18436319;32;20166;-67
2022/03/24 17:47:30;;;;;;;13.20;5.87;;;;;;;18.97;16.00;101085.47;18435817;32;20432;-67
2022/03/24 17:57:34;;;;;;;8.57;2.90;;;;;;;18.58;16.35;101094.37;18435215;32;20088;-67
2022/03/24 18:07:38;;;;;;;7.97;2.78;;;;;;;17.91;17.01;101116.16;18370778;32;20163;-67
2022/03/24 18:17:49;;;;;;;6.45;2.78;;;;;;;17.46;17.39;101124.97;18370184;32;20354;-67
2022/03/24 18:27:54;;;;;;;12.10;4.37;;;;;;;17.19;17.61;101140.44;18370214;32;20093;-67
2022/03/24 18:38:01;;;;;;;5.20;2.12;;;;;;;16.83;17.86;101150.69;18369467;32;20343;-68
2022/03/24 18:48:06;;;;;;;6.00;2.60;;;;;;;16.01;19.53;101181.69;18369772;32;20151;-67
2022/03/24 18:58:12;;;;;;;7.28;3.40;;;;;;;16.56;18.55;101208.19;18366750;32;20129;-67
2022/03/24 19:08:17;;;;;;;12.85;4.80;;;;;;;16.84;18.89;101231.50;18369053;32;20116;-67
2022/03/24 19:18:25;;;;;;;9.43;3.97;;;;;;;16.78;19.14;101243.87;18368938;32;20103;-67
2022/03/24 19:28:29;;;;;;;8.52;3.58;;;;;;;16.14;20.44;101251.78;18367633;32;20089;-67
2022/03/24 19:38:34;;;;;;;10.63;4.75;;;;;;;15.37;21.59;101274.44;18368431;32;20093;-67
2022/03/24 19:48:45;;;;;;;9.43;3.75;;;;;;;14.51;24.17;101277.56;18369276;32;20117;-67
2022/03/24 19:58:49;;;;;;;9.13;3.53;;;;;;;13.92;23.70;101284.75;18367696;32;20097;-66
2022/03/24 20:08:53;;;;;;;13.45;5.60;;;;;;;13.23;25.73;101297.00;18332034;32;20093;-67
2022/03/24 20:18:57;;;;;;;10.40;4.97;;;;;;;12.66;26.08;101302.97;18366848;32;20433;-66
2022/03/24 20:29:02;;;;;;;12.10;5.37;;;;;;;12.04;28.34;101308.78;18366093;32;20089;-66
2022/03/24 20:39:07;;;;;;;14.20;6.35;;;;;;;11.30;29.56;101320.38;18365473;32;20082;-66
2022/03/24 20:49:10;;;;;;;13.93;6.40;;;;;;;11.01;29.95;101327.94;18365272;32;20121;-66
2022/03/24 20:59:15;;;;;;;13.23;4.53;;;;;;;10.49;31.21;101336.88;18364647;32;20108;-66
2022/03/24 21:09:19;;;;;;;13.93;5.22;;;;;;;10.05;31.58;101338.84;18363676;32;20089;-66
2022/03/24 21:19:23;;;;;;;12.75;5.68;;;;;;;10.00;31.15;101341.38;18360690;32;20350;-64
2022/03/24 21:29:27;;;;;;;7.57;2.90;;;;;;;9.65;32.08;101357.34;18415630;32;20112;-63
2022/03/24 21:39:33;;;;;;;5.97;2.25;;;;;;;8.68;33.11;101369.37;18425798;32;20432;-63
2022/03/24 21:49:36;;;;;;;6.75;3.80;;;;;;;8.52;33.31;101374.28;18430001;32;20111;-63
2022/03/24 21:59:41;;;;;;;8.35;3.47;;;;;;;8.07;34.86;101373.22;18435273;32;20710;-63
2022/03/24 22:09:44;;;;;;;7.12;2.50;;;;;;;8.00;34.39;101387.78;18390481;32;20089;-64
2022/03/24 22:19:49;;;;;;;4.90;2.05;;;;;;;7.74;33.96;101393.25;18370569;32;20378;-63
2022/03/24 22:29:53;;;;;;;6.68;2.92;;;;;;;7.29;35.46;101389.44;18371206;32;20180;-63
2022/03/24 22:39:57;;;;;;;4.00;2.28;;;;;;;7.07;36.63;101393.19;18364020;32;20151;-63
2022/03/24 22:50:01;;;;;;;4.28;2.22;;;;;;;6.36;36.17;101395.44;18371002;32;20121;-63
2022/03/24 23:00:34;;;;;;;1.12;1.05;;;;;;;6.31;37.01;101401.31;18369357;32;20101;-63
2022/03/24 23:10:38;;;;;;;2.83;1.77;;;;;;;5.81;37.51;101421.28;18369495;32;20101;-63
2022/03/24 23:20:43;;;;;;;2.00;1.52;;;;;;;5.56;38.78;101424.75;18369235;32;20090;-62
2022/03/24 23:30:47;;;;;;;1.80;1.42;;;;;;;5.66;40.16;101425.97;18368698;32;20116;-63
2022/03/24 23:40:52;;;;;;;5.45;2.85;;;;;;;5.60;39.79;101434.41;18368703;32;20082;-63
2022/03/24 23:50:55;;;;;;;6.85;2.58;;;;;;;5.17;40.64;101441.53;18368039;32;20117;-63
